createdAt,value
2019-03-25T00:00:08.845Z,29.27
2019-03-25T00:02:39.711Z,29.82
2019-03-25T00:05:09.181Z,30.97
2019-03-25T00:07:38.608Z,29.25
2019-03-25T00:10:07.949Z,30.12
2019-03-25T00:12:37.404Z,29.65
2019-03-25T00:15:19.364Z,30.68
2019-03-25T00:17:48.693Z,30.40
2019-03-25T00:20:18.030Z,31.30
2019-03-25T00:22:47.424Z,29.67
2019-03-25T00:25:16.665Z,29.85
2019-03-25T00:27:46.810Z,30.85
2019-03-25T00:30:18.013Z,30.65
2019-03-25T00:32:47.204Z,30.48
2019-03-25T00:35:16.451Z,30.82
2019-03-25T00:37:45.705Z,30.12
2019-03-25T00:40:15.092Z,29.85
2019-03-25T00:42:44.407Z,30.90
2019-03-25T00:45:13.581Z,31.73
2019-03-25T00:47:42.839Z,31.40
2019-03-25T00:50:12.141Z,30.05
2019-03-25T00:52:42.837Z,31.87
2019-03-25T00:55:12.088Z,31.20
2019-03-25T00:57:41.321Z,30.70
2019-03-25T01:00:10.567Z,30.52
2019-03-25T01:02:39.857Z,30.48
2019-03-25T01:05:09.180Z,31.05
2019-03-25T01:07:38.492Z,32.42
2019-03-25T01:10:08.006Z,30.35
2019-03-25T01:12:37.223Z,30.15
2019-03-25T01:15:07.134Z,30.90
2019-03-25T01:17:36.393Z,30.05
2019-03-25T01:20:06.723Z,31.15
2019-03-25T01:22:35.927Z,31.57
2019-03-25T01:25:06.601Z,31.23
2019-03-25T01:27:36.083Z,31.10
2019-03-25T01:30:07.534Z,30.43
2019-03-25T01:32:36.767Z,29.32
2019-03-25T01:35:06.682Z,31.82
2019-03-25T01:37:35.931Z,32.73
2019-03-25T01:40:07.147Z,30.25
2019-03-25T01:42:36.402Z,31.05
2019-03-25T01:45:06.180Z,31.85
2019-03-25T01:47:35.510Z,31.33
2019-03-25T01:50:06.181Z,30.70
2019-03-25T01:52:35.568Z,31.15
2019-03-25T01:55:13.059Z,31.60
2019-03-25T01:57:35.823Z,31.70
2019-03-25T02:00:06.700Z,31.55
2019-03-25T02:02:35.999Z,31.17
2019-03-25T02:05:06.512Z,30.00
2019-03-25T02:07:35.849Z,31.07
2019-03-25T02:10:06.522Z,30.37
2019-03-25T02:12:35.764Z,29.25
2019-03-25T02:15:06.179Z,30.27
2019-03-25T02:17:35.555Z,31.45
2019-03-25T02:20:08.693Z,30.92
2019-03-25T02:22:37.928Z,31.90
2019-03-25T02:25:07.285Z,30.50
2019-03-25T02:27:37.436Z,29.87
2019-03-25T02:30:07.678Z,30.55
2019-03-25T02:32:36.837Z,30.90
2019-03-25T02:35:06.684Z,31.73
2019-03-25T02:37:36.006Z,31.45
2019-03-25T02:40:06.190Z,30.37
2019-03-25T02:42:35.446Z,31.25
2019-03-25T02:45:06.806Z,30.12
2019-03-25T02:47:36.045Z,31.10
2019-03-25T02:50:05.669Z,31.37
2019-03-25T02:52:34.928Z,31.75
2019-03-25T02:55:05.949Z,30.20
2019-03-25T02:57:35.254Z,29.67
2019-03-25T03:00:04.882Z,30.85
2019-03-25T03:02:34.769Z,30.85
2019-03-25T03:05:05.012Z,30.55
2019-03-25T03:07:34.334Z,30.27
2019-03-25T03:10:06.806Z,30.45
2019-03-25T03:12:36.135Z,31.25
2019-03-25T03:15:06.217Z,30.60
2019-03-25T03:17:35.557Z,31.30
2019-03-25T03:20:06.840Z,30.90
2019-03-25T03:22:36.114Z,29.42
2019-03-25T03:25:05.428Z,30.12
2019-03-25T03:27:34.668Z,30.37
2019-03-25T03:30:05.273Z,31.23
2019-03-25T03:32:34.557Z,29.92
2019-03-25T03:35:05.644Z,30.90
2019-03-25T03:37:34.876Z,29.87
2019-03-25T03:40:05.710Z,30.12
2019-03-25T03:42:34.958Z,29.72
2019-03-25T03:45:05.342Z,30.60
2019-03-25T03:47:34.659Z,31.45
2019-03-25T03:50:06.476Z,30.60
2019-03-25T03:52:36.080Z,29.32
2019-03-25T03:55:06.385Z,31.52
2019-03-25T03:57:36.895Z,30.05
2019-03-25T04:00:07.129Z,30.23
2019-03-25T04:02:36.518Z,31.82
2019-03-25T04:05:05.753Z,30.70
2019-03-25T04:07:35.076Z,31.30
2019-03-25T04:10:06.000Z,31.85
2019-03-25T04:12:35.265Z,30.48
2019-03-25T04:15:06.502Z,31.52
2019-03-25T04:17:35.683Z,31.62
2019-03-25T04:20:06.685Z,31.70
2019-03-25T04:22:36.137Z,32.42
2019-03-25T04:25:06.241Z,31.45
2019-03-25T04:27:35.554Z,31.33
2019-03-25T04:30:05.272Z,32.05
2019-03-25T04:32:34.572Z,31.90
2019-03-25T04:35:04.854Z,32.10
2019-03-25T04:37:34.049Z,31.77
2019-03-25T04:40:07.025Z,32.03
2019-03-25T04:42:36.386Z,32.05
2019-03-25T04:45:08.392Z,31.15
2019-03-25T04:47:37.666Z,33.53
2019-03-25T04:50:06.917Z,31.30
2019-03-25T04:52:36.239Z,32.20
2019-03-25T04:55:06.728Z,31.90
2019-03-25T04:57:35.945Z,31.07
2019-03-25T05:00:06.773Z,31.37
2019-03-25T05:02:35.985Z,31.30
2019-03-25T05:05:07.687Z,30.65
2019-03-25T05:07:36.969Z,31.35
2019-03-25T05:10:07.039Z,32.13
2019-03-25T05:12:36.199Z,32.30
2019-03-25T05:15:06.392Z,30.70
2019-03-25T05:17:35.808Z,30.60
2019-03-25T05:20:05.414Z,30.82
2019-03-25T05:22:34.657Z,30.75
2019-03-25T05:25:05.340Z,31.27
2019-03-25T05:27:34.534Z,30.88
2019-03-25T05:30:05.527Z,29.98
2019-03-25T05:32:34.932Z,30.60
2019-03-25T05:35:06.872Z,30.10
2019-03-25T05:37:36.124Z,31.27
2019-03-25T05:40:05.368Z,32.40
2019-03-25T05:42:34.638Z,31.55
2019-03-25T05:45:05.565Z,30.90
2019-03-25T05:47:34.838Z,32.50
2019-03-25T05:50:09.022Z,37.67
2019-03-25T05:52:38.587Z,35.43
2019-03-25T05:55:08.214Z,33.13
2019-03-25T05:57:37.466Z,32.10
2019-03-25T06:00:07.877Z,31.62
2019-03-25T06:02:37.322Z,32.75
2019-03-25T06:05:06.934Z,32.00
2019-03-25T06:07:36.238Z,31.68
2019-03-25T06:10:06.326Z,32.10
2019-03-25T06:12:36.154Z,34.27
2019-03-25T06:15:06.034Z,56.33
2019-03-25T06:17:35.464Z,36.53
2019-03-25T06:20:06.495Z,31.70
2019-03-25T06:22:35.880Z,32.67
2019-03-25T06:25:06.588Z,33.40
2019-03-25T06:27:35.958Z,32.48
2019-03-25T06:30:09.228Z,32.98
2019-03-25T06:32:38.523Z,33.18
2019-03-25T06:35:08.945Z,31.45
2019-03-25T06:37:38.597Z,34.15
2019-03-25T06:40:08.298Z,32.45
2019-03-25T06:42:37.624Z,33.40
2019-03-25T06:45:07.558Z,34.48
2019-03-25T06:47:36.804Z,33.13
2019-03-25T06:50:07.398Z,33.48
2019-03-25T06:52:36.687Z,33.20
2019-03-25T06:55:07.349Z,32.67
2019-03-25T06:57:38.665Z,34.90
2019-03-25T07:00:08.245Z,34.63
2019-03-25T07:02:37.761Z,33.28
2019-03-25T07:05:07.079Z,32.20
2019-03-25T07:07:36.251Z,32.88
2019-03-25T07:10:06.401Z,41.08
2019-03-25T07:12:36.613Z,36.40
2019-03-25T07:15:08.796Z,36.40
2019-03-25T07:17:38.199Z,34.90
2019-03-25T07:20:08.411Z,34.08
2019-03-25T07:22:38.961Z,34.85
2019-03-25T07:25:08.326Z,33.38
2019-03-25T07:27:37.617Z,35.03
2019-03-25T07:30:08.185Z,33.15
2019-03-25T07:32:37.432Z,33.90
2019-03-25T07:35:07.581Z,33.38
2019-03-25T07:37:36.773Z,33.78
2019-03-25T07:40:07.389Z,34.45
2019-03-25T07:42:36.614Z,42.40
2019-03-25T07:45:08.923Z,43.33
2019-03-25T07:47:38.239Z,38.05
2019-03-25T07:50:07.939Z,34.70
2019-03-25T07:52:37.146Z,34.05
2019-03-25T07:55:06.440Z,35.40
2019-03-25T07:57:35.760Z,33.67
2019-03-25T08:00:13.595Z,34.50
2019-03-25T08:02:39.203Z,32.93
2019-03-25T08:05:08.415Z,33.33
2019-03-25T08:07:37.723Z,34.00
2019-03-25T08:10:07.000Z,33.33
2019-03-25T08:12:48.416Z,34.80
2019-03-25T08:15:17.691Z,33.02
2019-03-25T08:17:46.924Z,33.67
2019-03-25T08:20:16.315Z,35.95
2019-03-25T08:22:45.615Z,36.42
2019-03-25T08:25:14.786Z,42.10
2019-03-25T08:27:44.009Z,36.77
2019-03-25T08:30:13.216Z,34.78
2019-03-25T08:32:42.471Z,35.63
2019-03-25T08:35:11.739Z,35.13
2019-03-25T08:37:41.086Z,35.48
2019-03-25T08:40:10.320Z,35.73
2019-03-25T08:42:39.593Z,36.05
2019-03-25T08:45:08.750Z,36.10
2019-03-25T08:47:37.987Z,36.65
2019-03-25T08:50:08.396Z,35.45
2019-03-25T08:52:37.655Z,36.58
2019-03-25T08:55:06.995Z,36.33
2019-03-25T08:57:36.327Z,35.85
2019-03-25T09:00:07.485Z,36.93
2019-03-25T09:02:36.777Z,36.88
2019-03-25T09:05:07.451Z,36.25
2019-03-25T09:07:36.796Z,36.17
2019-03-25T09:10:07.679Z,36.40
2019-03-25T09:12:37.071Z,35.98
2019-03-25T09:15:08.177Z,36.42
2019-03-25T09:17:37.479Z,36.58
2019-03-25T09:20:08.363Z,34.90
2019-03-25T09:22:37.570Z,37.05
2019-03-25T09:25:08.084Z,36.98
2019-03-25T09:27:37.278Z,36.80
2019-03-25T09:30:08.616Z,37.60
2019-03-25T09:32:37.870Z,37.98
2019-03-25T09:35:08.040Z,37.58
2019-03-25T09:37:38.271Z,37.23
2019-03-25T09:40:09.154Z,37.80
2019-03-25T09:42:38.469Z,36.00
2019-03-25T09:45:08.397Z,38.58
2019-03-25T09:47:38.045Z,38.35
2019-03-25T09:50:08.714Z,39.53
2019-03-25T09:52:38.909Z,37.65
2019-03-25T09:55:09.257Z,37.00
2019-03-25T09:57:38.554Z,38.25
2019-03-25T10:00:10.427Z,37.40
2019-03-25T10:02:39.594Z,37.78
2019-03-25T10:05:08.854Z,37.73
2019-03-25T10:07:38.161Z,37.65
2019-03-25T10:10:07.515Z,38.67
2019-03-25T10:12:36.681Z,39.03
2019-03-25T10:15:07.884Z,38.17
2019-03-25T10:17:37.112Z,37.25
2019-03-25T10:20:07.375Z,39.58
2019-03-25T10:22:36.617Z,37.42
2019-03-25T10:25:07.582Z,37.17
2019-03-25T10:27:36.770Z,36.25
2019-03-25T10:30:10.006Z,38.40
2019-03-25T10:32:39.267Z,37.28
2019-03-25T10:35:08.538Z,34.88
2019-03-25T10:37:37.818Z,36.35
2019-03-25T10:40:07.199Z,34.73
2019-03-25T10:42:36.475Z,33.28
2019-03-25T10:45:06.880Z,34.13
2019-03-25T10:47:36.186Z,32.78
2019-03-25T10:50:05.988Z,33.98
2019-03-25T10:52:35.330Z,31.23
2019-03-25T10:55:07.724Z,31.75
2019-03-25T10:57:36.617Z,32.35
2019-03-25T11:00:08.874Z,32.50
2019-03-25T11:02:38.737Z,29.30
2019-03-25T11:05:07.914Z,31.42
2019-03-25T11:07:37.175Z,31.07
2019-03-25T11:10:08.269Z,32.42
2019-03-25T11:12:37.528Z,30.32
2019-03-25T11:15:09.725Z,30.20
2019-03-25T11:17:38.985Z,28.27
2019-03-25T11:20:08.721Z,29.65
2019-03-25T11:22:38.061Z,30.90
2019-03-25T11:25:07.325Z,29.55
2019-03-25T11:27:36.628Z,28.90
2019-03-25T11:30:10.378Z,29.85
2019-03-25T11:32:39.528Z,29.80
2019-03-25T11:35:09.476Z,30.23
2019-03-25T11:37:39.609Z,30.37
2019-03-25T11:40:09.305Z,30.40
2019-03-25T11:42:38.636Z,30.80
2019-03-25T11:45:08.621Z,31.57
2019-03-25T11:47:37.918Z,29.85
2019-03-25T11:50:07.692Z,30.57
2019-03-25T11:52:36.930Z,30.02
2019-03-25T11:55:06.446Z,30.37
2019-03-25T11:57:35.609Z,31.17
2019-03-25T12:00:07.575Z,31.30
2019-03-25T12:02:37.090Z,30.25
2019-03-25T12:05:06.685Z,30.40
2019-03-25T12:07:36.081Z,31.55
2019-03-25T12:10:06.294Z,31.35
2019-03-25T12:12:35.544Z,31.50
2019-03-25T12:15:07.389Z,32.17
2019-03-25T12:17:36.731Z,29.70
2019-03-25T12:20:08.938Z,30.30
2019-03-25T12:22:38.209Z,31.42
2019-03-25T12:25:07.606Z,30.15
2019-03-25T12:27:36.787Z,31.12
2019-03-25T12:30:10.230Z,30.35
2019-03-25T12:32:39.547Z,30.23
2019-03-25T12:35:08.740Z,34.00
2019-03-25T12:37:38.153Z,32.38
2019-03-25T12:40:07.987Z,34.05
2019-03-25T12:42:37.814Z,31.40
2019-03-25T12:45:07.361Z,32.73
2019-03-25T12:47:37.824Z,33.75
2019-03-25T12:50:08.160Z,31.95
2019-03-25T12:52:37.395Z,31.75
2019-03-25T12:55:06.580Z,38.75
2019-03-25T12:57:35.874Z,35.15
2019-03-25T13:00:08.181Z,31.35
2019-03-25T13:02:37.491Z,31.48
2019-03-25T13:05:06.931Z,31.42
2019-03-25T13:07:37.187Z,33.55
2019-03-25T13:10:06.615Z,34.03
2019-03-25T13:12:35.858Z,32.60
2019-03-25T13:15:08.691Z,32.55
2019-03-25T13:17:39.219Z,31.37
2019-03-25T13:20:08.474Z,30.17
2019-03-25T13:22:37.721Z,31.42
2019-03-25T13:25:06.932Z,31.33
2019-03-25T13:27:36.276Z,33.08
2019-03-25T13:30:08.168Z,34.33
2019-03-25T13:32:41.094Z,32.80
2019-03-25T13:35:14.294Z,31.55
2019-03-25T13:37:45.228Z,31.27
2019-03-25T13:40:14.988Z,30.55
2019-03-25T13:42:45.916Z,30.82
2019-03-25T13:45:15.186Z,31.20
2019-03-25T13:47:44.458Z,31.07
2019-03-25T13:50:13.689Z,30.92
2019-03-25T13:52:42.891Z,29.72
2019-03-25T13:55:12.240Z,29.32
2019-03-25T13:57:41.552Z,27.75
2019-03-25T14:00:12.452Z,26.60
2019-03-25T14:02:42.896Z,25.37
2019-03-25T14:05:13.270Z,25.08
2019-03-25T14:07:44.236Z,24.35
2019-03-25T14:10:13.685Z,23.27
2019-03-25T14:12:42.895Z,24.47
2019-03-25T14:15:12.316Z,21.95
2019-03-25T14:17:41.700Z,19.70
2019-03-25T14:20:11.193Z,17.02
2019-03-25T14:22:40.473Z,15.40
2019-03-25T14:25:09.760Z,14.23
2019-03-25T14:27:39.107Z,13.80
2019-03-25T14:30:14.523Z,13.50
2019-03-25T14:32:39.597Z,13.25
2019-03-25T14:35:09.154Z,12.90
2019-03-25T14:37:38.469Z,13.38
2019-03-25T14:40:07.908Z,13.75
2019-03-25T14:42:37.705Z,14.38
2019-03-25T14:45:07.779Z,14.55
2019-03-25T14:47:38.190Z,14.10
2019-03-25T14:50:07.467Z,13.50
2019-03-25T14:52:36.822Z,14.23
2019-03-25T14:55:06.141Z,13.65
2019-03-25T14:57:35.443Z,13.50
2019-03-25T15:00:06.960Z,14.30
2019-03-25T15:02:36.441Z,14.75
2019-03-25T15:05:07.390Z,15.65
2019-03-25T15:07:36.761Z,15.45
2019-03-25T15:10:07.281Z,14.78
2019-03-25T15:12:36.784Z,14.98
2019-03-25T15:15:07.185Z,15.35
2019-03-25T15:17:36.557Z,15.60
2019-03-25T15:20:10.077Z,16.00
2019-03-25T15:22:40.088Z,16.20
2019-03-25T15:25:09.736Z,15.58
2019-03-25T15:27:39.089Z,16.32
2019-03-25T15:30:09.343Z,16.25
2019-03-25T15:32:38.517Z,16.10
2019-03-25T15:35:08.372Z,15.75
2019-03-25T15:37:37.883Z,16.05
2019-03-25T15:40:08.972Z,15.85
2019-03-25T15:42:38.239Z,15.75
2019-03-25T15:45:08.595Z,16.82
2019-03-25T15:47:38.542Z,16.50
2019-03-25T15:50:08.361Z,17.60
2019-03-25T15:52:38.305Z,16.45
2019-03-25T15:55:08.621Z,16.87
2019-03-25T15:57:39.776Z,18.10
2019-03-25T16:00:16.687Z,16.77
2019-03-25T16:02:45.990Z,16.52
2019-03-25T16:05:15.864Z,16.65
2019-03-25T16:07:45.122Z,17.55
2019-03-25T16:10:15.810Z,17.50
2019-03-25T16:12:45.680Z,16.05
2019-03-25T16:15:34.913Z,16.90
2019-03-25T16:18:05.968Z,17.35
2019-03-25T16:20:38.205Z,17.42
2019-03-25T16:23:09.843Z,17.65
2019-03-25T16:25:41.484Z,17.32
2019-03-25T16:28:10.741Z,18.25
2019-03-25T16:30:39.934Z,18.32
2019-03-25T16:33:09.230Z,17.70
2019-03-25T16:35:38.519Z,18.65
2019-03-25T16:38:07.897Z,18.80
2019-03-25T16:40:37.199Z,18.10
2019-03-25T16:43:08.186Z,18.00
2019-03-25T16:45:38.384Z,18.27
2019-03-25T16:48:10.504Z,18.82
2019-03-25T16:50:39.954Z,18.60
2019-03-25T16:53:09.186Z,25.40
2019-03-25T16:55:38.506Z,19.52
2019-03-25T16:58:07.751Z,17.92
2019-03-25T17:00:36.904Z,17.52
2019-03-25T17:03:06.330Z,17.98
2019-03-25T17:05:35.811Z,19.27
2019-03-25T17:08:05.121Z,19.73
2019-03-25T17:10:34.384Z,19.73
2019-03-25T17:13:03.718Z,18.80
2019-03-25T17:15:33.000Z,20.23
2019-03-25T17:18:02.284Z,18.07
2019-03-25T17:20:31.627Z,18.32
2019-03-25T17:23:00.918Z,19.50
2019-03-25T17:25:31.330Z,19.37
2019-03-25T17:28:01.775Z,18.85
2019-03-25T17:30:31.112Z,20.32
2019-03-25T17:33:00.403Z,21.30
2019-03-25T17:35:29.685Z,19.25
2019-03-25T17:37:58.944Z,20.20
2019-03-25T17:40:28.354Z,20.65
2019-03-25T17:42:58.799Z,21.40
2019-03-25T17:45:28.112Z,21.23
2019-03-25T17:47:57.503Z,21.15
2019-03-25T17:50:26.749Z,22.45
2019-03-25T17:52:56.000Z,21.73
2019-03-25T17:55:25.179Z,21.35
2019-03-25T17:57:54.483Z,20.40
2019-03-25T18:00:49.838Z,21.10
2019-03-25T18:03:19.316Z,20.60
2019-03-25T18:05:49.807Z,20.27
2019-03-25T18:08:19.165Z,20.72
2019-03-25T18:10:48.447Z,19.25
2019-03-25T18:13:22.263Z,18.15
2019-03-25T18:15:48.611Z,16.35
2019-03-25T18:18:18.289Z,14.40
2019-03-25T18:20:47.595Z,16.42
2019-03-25T18:23:16.922Z,14.33
2019-03-25T18:25:46.193Z,15.00
2019-03-25T18:28:15.531Z,13.88
2019-03-25T18:30:44.727Z,13.32
2019-03-25T18:33:13.993Z,11.33
2019-03-25T18:35:43.248Z,11.43
2019-03-25T18:38:12.559Z,8.98
2019-03-25T18:40:41.818Z,9.78
2019-03-25T18:43:12.056Z,8.38
2019-03-25T18:45:41.886Z,7.12
2019-03-25T18:48:11.084Z,6.45
2019-03-25T18:50:40.261Z,8.45
2019-03-25T18:53:09.504Z,6.53
2019-03-25T18:55:38.807Z,6.25
2019-03-25T18:58:08.109Z,6.17
2019-03-25T19:00:37.367Z,5.42
2019-03-25T19:03:06.763Z,6.67
2019-03-25T19:05:36.221Z,4.87
2019-03-25T19:08:05.496Z,4.97
2019-03-25T19:10:34.807Z,9.63
2019-03-25T19:13:03.964Z,7.75
2019-03-25T19:15:33.240Z,5.22
2019-03-25T19:18:03.076Z,5.37
2019-03-25T19:20:32.524Z,4.47
2019-03-25T19:23:01.839Z,3.75
2019-03-25T19:25:31.171Z,2.55
2019-03-25T19:28:00.456Z,2.55
2019-03-25T19:30:29.640Z,3.08
2019-03-25T19:32:58.866Z,3.15
2019-03-25T19:35:29.989Z,2.90
2019-03-25T19:37:59.217Z,2.42
2019-03-25T19:40:28.598Z,2.60
2019-03-25T19:42:57.930Z,2.33
2019-03-25T19:45:27.232Z,2.80
2019-03-25T19:47:56.579Z,2.75
2019-03-25T19:50:25.913Z,2.33
2019-03-25T19:52:58.473Z,2.35
2019-03-25T19:55:36.399Z,2.30
2019-03-25T19:58:07.978Z,2.62
2019-03-25T20:00:43.274Z,2.27
2019-03-25T20:03:19.456Z,2.40
2019-03-25T20:05:50.930Z,2.40
2019-03-25T20:08:20.541Z,2.15
2019-03-25T20:10:49.995Z,2.12
2019-03-25T20:13:19.354Z,2.00
2019-03-25T20:15:48.879Z,2.17
2019-03-25T20:18:18.229Z,2.30
2019-03-25T20:20:53.939Z,1.95
2019-03-25T20:23:20.560Z,2.40
2019-03-25T20:25:50.691Z,2.02
2019-03-25T20:28:22.813Z,2.80
2019-03-25T20:30:52.265Z,2.95
2019-03-25T20:33:21.553Z,4.58
2019-03-25T20:35:50.821Z,3.37
2019-03-25T20:38:20.212Z,2.67
2019-03-25T20:40:49.547Z,2.70
2019-03-25T20:43:18.807Z,2.70
2019-03-25T20:45:48.224Z,1.95
2019-03-25T20:48:17.605Z,2.10
2019-03-25T20:50:48.108Z,4.22
2019-03-25T20:53:17.432Z,4.05
2019-03-25T20:55:46.737Z,6.80
2019-03-25T20:58:15.977Z,3.45
2019-03-25T21:00:50.283Z,2.05
2019-03-25T21:03:19.705Z,2.50
2019-03-25T21:05:49.504Z,3.25
2019-03-25T21:08:18.867Z,2.30
2019-03-25T21:10:48.632Z,2.20
2019-03-25T21:13:19.026Z,2.05
2019-03-25T21:15:48.233Z,2.47
2019-03-25T21:18:17.707Z,2.55
2019-03-25T21:20:46.923Z,1.90
2019-03-25T21:23:16.277Z,1.72
2019-03-25T21:25:45.578Z,2.70
2019-03-25T21:28:15.395Z,3.22
2019-03-25T21:30:48.312Z,1.90
2019-03-25T21:33:15.699Z,2.20
2019-03-25T21:35:45.055Z,1.62
2019-03-25T21:38:14.518Z,1.27
2019-03-25T21:40:43.934Z,0.95
2019-03-25T21:43:13.130Z,1.50
2019-03-25T21:45:42.344Z,1.40
2019-03-25T21:48:11.637Z,1.02
2019-03-25T21:50:40.873Z,1.20
2019-03-25T21:53:10.289Z,1.37
2019-03-25T21:55:39.720Z,1.50
2019-03-25T21:58:09.016Z,1.30
2019-03-25T22:00:39.607Z,1.60
2019-03-25T22:03:12.157Z,2.12
2019-03-25T22:05:41.060Z,2.27
2019-03-25T22:08:10.296Z,1.70
2019-03-25T22:10:39.846Z,1.75
2019-03-25T22:13:10.465Z,1.50
2019-03-25T22:15:39.700Z,1.70
2019-03-25T22:18:09.959Z,1.40
2019-03-25T22:20:39.127Z,1.32
2019-03-25T22:23:08.406Z,1.15
2019-03-25T22:25:41.052Z,1.25
2019-03-25T22:28:11.432Z,0.85
2019-03-25T22:30:41.852Z,1.02
2019-03-25T22:33:24.883Z,1.10
2019-03-25T22:35:43.041Z,1.15
2019-03-25T22:38:12.207Z,1.00
2019-03-25T22:40:41.372Z,1.02
2019-03-25T22:43:10.680Z,2.00
2019-03-25T22:45:39.854Z,1.27
2019-03-25T22:48:10.130Z,1.47
2019-03-25T22:50:39.406Z,1.17
2019-03-25T22:53:08.650Z,1.37
2019-03-25T22:55:37.813Z,1.30
2019-03-25T22:58:06.983Z,1.12
2019-03-25T23:00:40.712Z,1.30
2019-03-25T23:03:10.180Z,1.80
2019-03-25T23:05:39.324Z,1.95
2019-03-25T23:08:08.587Z,1.70
2019-03-25T23:10:38.991Z,1.60
2019-03-25T23:13:08.306Z,1.80
2019-03-25T23:15:37.497Z,1.95
2019-03-25T23:18:06.673Z,1.67
2019-03-25T23:20:35.911Z,1.40
2019-03-25T23:23:05.123Z,1.42
2019-03-25T23:25:34.298Z,1.50
2019-03-25T23:28:03.875Z,1.60
2019-03-25T23:30:34.057Z,1.20
2019-03-25T23:33:03.290Z,1.47
2019-03-25T23:35:32.525Z,2.05
2019-03-25T23:38:01.745Z,2.20
2019-03-25T23:40:30.920Z,2.33
2019-03-25T23:43:00.169Z,2.77
2019-03-25T23:45:29.416Z,3.08
2019-03-25T23:48:01.620Z,2.80
2019-03-25T23:50:30.832Z,2.30
2019-03-25T23:53:06.623Z,2.25
2019-03-25T23:55:35.762Z,2.27
2019-03-25T23:58:04.923Z,2.27
